createdAt,value
2018-05-14T00:00:23.932Z,6.40
2018-05-14T00:02:51.293Z,5.90
2018-05-14T00:05:25.095Z,6.07
2018-05-14T00:07:53.169Z,11.90
2018-05-14T00:10:21.753Z,7.20
2018-05-14T00:12:49.618Z,6.43
2018-05-14T00:15:17.486Z,6.23
2018-05-14T00:17:45.171Z,6.60
2018-05-14T00:20:12.527Z,6.90
2018-05-14T00:22:39.981Z,7.10
2018-05-14T00:25:07.834Z,6.63
2018-05-14T00:27:35.695Z,7.20
2018-05-14T00:30:03.677Z,7.00
2018-05-14T00:32:32.246Z,7.23
2018-05-14T00:35:00.216Z,7.40
2018-05-14T00:37:29.313Z,7.40
2018-05-14T00:39:56.874Z,7.40
2018-05-14T00:42:41.322Z,7.97
2018-05-14T00:45:09.707Z,7.67
2018-05-14T00:47:37.686Z,7.63
2018-05-14T00:50:05.545Z,8.17
2018-05-14T00:52:33.514Z,7.33
2018-05-14T00:55:13.376Z,7.13
2018-05-14T00:57:41.378Z,7.30
2018-05-14T01:00:08.994Z,7.53
2018-05-14T01:02:36.790Z,7.10
2018-05-14T01:05:04.495Z,7.37
2018-05-14T01:07:31.981Z,7.07
2018-05-14T01:09:59.809Z,7.33
2018-05-14T01:12:27.210Z,7.57
2018-05-14T01:14:55.104Z,9.47
2018-05-14T01:17:22.633Z,6.90
2018-05-14T01:19:50.410Z,6.63
2018-05-14T01:22:18.067Z,6.57
2018-05-14T01:24:51.661Z,7.17
2018-05-14T01:27:19.529Z,7.37
2018-05-14T01:29:47.406Z,5.90
2018-05-14T01:32:15.064Z,6.90
2018-05-14T01:34:43.036Z,6.17
2018-05-14T01:37:10.996Z,6.17
2018-05-14T01:39:38.863Z,6.00
2018-05-14T01:42:06.634Z,5.73
2018-05-14T01:44:34.504Z,6.47
2018-05-14T01:47:02.769Z,5.73
2018-05-14T01:49:30.569Z,5.00
2018-05-14T01:51:58.386Z,5.40
2018-05-14T01:54:25.884Z,7.50
2018-05-14T01:56:53.328Z,5.87
2018-05-14T01:59:21.300Z,5.60
2018-05-14T02:01:48.723Z,5.27
2018-05-14T02:04:16.108Z,5.33
2018-05-14T02:06:44.037Z,5.07
2018-05-14T02:09:12.025Z,5.07
2018-05-14T02:11:39.521Z,5.23
2018-05-14T02:14:06.921Z,5.03
2018-05-14T02:16:34.615Z,5.33
2018-05-14T02:19:02.540Z,5.03
2018-05-14T02:21:30.146Z,4.53
2018-05-14T02:23:57.925Z,5.23
2018-05-14T02:26:25.777Z,4.87
2018-05-14T02:28:53.553Z,5.30
2018-05-14T02:31:21.507Z,4.73
2018-05-14T02:33:49.082Z,4.67
2018-05-14T02:36:17.046Z,4.20
2018-05-14T02:38:44.915Z,4.23
2018-05-14T02:41:12.961Z,5.30
2018-05-14T02:43:41.052Z,4.20
2018-05-14T02:46:09.026Z,4.50
2018-05-14T02:48:36.862Z,4.60
2018-05-14T02:51:04.446Z,4.60
2018-05-14T02:53:32.317Z,4.60
2018-05-14T02:56:00.001Z,4.33
2018-05-14T02:58:27.549Z,4.50
2018-05-14T03:00:55.303Z,4.13
2018-05-14T03:03:23.274Z,3.80
2018-05-14T03:05:50.869Z,4.43
2018-05-14T03:08:18.502Z,4.43
2018-05-14T03:10:45.917Z,5.07
2018-05-14T03:13:13.411Z,4.03
2018-05-14T03:15:40.973Z,3.67
2018-05-14T03:18:08.957Z,4.00
2018-05-14T03:20:36.426Z,3.77
2018-05-14T03:23:03.884Z,3.93
2018-05-14T03:25:31.530Z,3.77
2018-05-14T03:27:59.393Z,3.77
2018-05-14T03:30:26.761Z,3.90
2018-05-14T03:32:54.306Z,3.17
2018-05-14T03:35:22.201Z,3.23
2018-05-14T03:37:50.132Z,3.47
2018-05-14T03:40:18.051Z,3.43
2018-05-14T03:42:45.677Z,3.50
2018-05-14T03:45:13.438Z,4.00
2018-05-14T03:47:41.473Z,3.37
2018-05-14T03:50:09.165Z,3.57
2018-05-14T03:52:37.135Z,3.47
2018-05-14T03:55:05.003Z,3.23
2018-05-14T03:57:32.865Z,3.43
2018-05-14T04:00:12.115Z,3.53
2018-05-14T04:02:51.698Z,3.30
2018-05-14T04:05:19.510Z,4.10
2018-05-14T04:07:47.597Z,3.33
2018-05-14T04:10:16.078Z,3.53
2018-05-14T04:12:45.082Z,3.80
2018-05-14T04:15:12.479Z,3.30
2018-05-14T04:17:39.825Z,3.60
2018-05-14T04:20:07.219Z,3.63
2018-05-14T04:22:34.697Z,3.27
2018-05-14T04:25:02.762Z,3.17
2018-05-14T04:27:30.550Z,3.93
2018-05-14T04:29:58.081Z,3.50
2018-05-14T04:32:29.236Z,3.47
2018-05-14T04:34:56.991Z,3.60
2018-05-14T04:37:24.959Z,3.60
2018-05-14T04:39:53.110Z,3.60
2018-05-14T04:42:20.802Z,3.30
2018-05-14T04:44:48.663Z,3.40
2018-05-14T04:47:16.570Z,3.33
2018-05-14T04:49:44.115Z,2.87
2018-05-14T04:52:11.857Z,3.20
2018-05-14T04:54:40.070Z,2.87
2018-05-14T04:57:07.471Z,3.10
2018-05-14T04:59:34.909Z,3.63
2018-05-14T05:02:02.521Z,4.60
2018-05-14T05:04:30.396Z,3.37
2018-05-14T05:06:57.931Z,4.33
2018-05-14T05:09:26.397Z,2.97
2018-05-14T05:11:53.872Z,3.53
2018-05-14T05:14:22.784Z,4.63
2018-05-14T05:16:50.730Z,2.83
2018-05-14T05:19:22.126Z,2.73
2018-05-14T05:21:49.537Z,3.50
2018-05-14T05:24:17.301Z,5.13
2018-05-14T05:26:45.067Z,3.70
2018-05-14T05:29:12.841Z,2.73
2018-05-14T05:31:40.266Z,2.90
2018-05-14T05:34:14.116Z,3.40
2018-05-14T05:36:41.570Z,3.90
2018-05-14T05:39:09.114Z,4.70
2018-05-14T05:41:37.083Z,4.57
2018-05-14T05:44:04.893Z,5.23
2018-05-14T05:46:32.316Z,4.80
2018-05-14T05:49:00.173Z,3.87
2018-05-14T05:51:28.041Z,3.10
2018-05-14T05:53:55.812Z,5.33
2018-05-14T05:56:23.772Z,4.40
2018-05-14T05:58:51.332Z,3.73
2018-05-14T06:01:19.492Z,3.90
2018-05-14T06:03:46.979Z,4.80
2018-05-14T06:06:14.827Z,4.70
2018-05-14T06:08:42.215Z,5.37
2018-05-14T06:11:09.612Z,4.93
2018-05-14T06:13:37.103Z,4.43
2018-05-14T06:16:04.882Z,3.60
2018-05-14T06:18:32.643Z,4.60
2018-05-14T06:21:00.721Z,4.13
2018-05-14T06:23:28.468Z,3.87
2018-05-14T06:25:56.030Z,3.97
2018-05-14T06:28:23.922Z,3.27
2018-05-14T06:30:51.887Z,3.67
2018-05-14T06:33:19.330Z,3.47
2018-05-14T06:35:47.298Z,3.30
2018-05-14T06:38:15.169Z,3.03
2018-05-14T06:40:42.923Z,3.23
2018-05-14T06:43:10.940Z,3.87
2018-05-14T06:45:38.461Z,4.30
2018-05-14T06:48:06.699Z,3.60
2018-05-14T06:50:34.122Z,4.03
2018-05-14T06:53:01.682Z,4.10
2018-05-14T06:55:29.214Z,3.70
2018-05-14T06:57:56.968Z,3.57
2018-05-14T07:00:24.728Z,4.50
2018-05-14T07:02:52.433Z,3.73
2018-05-14T07:05:19.971Z,3.67
2018-05-14T07:07:50.586Z,4.07
2018-05-14T07:10:25.949Z,5.00
2018-05-14T07:12:54.515Z,3.87
2018-05-14T07:15:22.383Z,3.47
2018-05-14T07:17:50.185Z,2.97
2018-05-14T07:20:21.858Z,3.87
2018-05-14T07:22:49.567Z,3.40
2018-05-14T07:25:17.058Z,3.60
2018-05-14T07:27:44.495Z,3.47
2018-05-14T07:30:12.548Z,3.73
2018-05-14T07:32:40.287Z,3.60
2018-05-14T07:35:08.092Z,4.40
2018-05-14T07:37:35.968Z,3.70
2018-05-14T07:40:03.513Z,3.97
2018-05-14T07:42:30.995Z,3.30
2018-05-14T07:44:58.352Z,3.60
2018-05-14T07:47:25.883Z,3.90
2018-05-14T07:49:53.634Z,3.30
2018-05-14T07:52:21.096Z,3.93
2018-05-14T07:54:48.564Z,3.97
2018-05-14T07:57:16.364Z,3.47
2018-05-14T07:59:43.800Z,3.40
2018-05-14T08:02:11.658Z,3.60
2018-05-14T08:04:39.596Z,3.77
2018-05-14T08:07:07.153Z,3.53
2018-05-14T08:09:34.491Z,4.70
2018-05-14T08:12:01.995Z,3.83
2018-05-14T08:14:29.879Z,5.25
2018-05-14T08:16:57.538Z,3.83
2018-05-14T08:19:25.498Z,4.40
2018-05-14T08:21:53.362Z,3.83
2018-05-14T08:24:21.289Z,3.60
2018-05-14T08:26:48.796Z,3.97
2018-05-14T08:29:16.221Z,4.15
2018-05-14T08:31:43.720Z,4.22
2018-05-14T08:34:11.519Z,3.90
2018-05-14T08:36:38.990Z,3.70
2018-05-14T08:39:07.440Z,4.20
2018-05-14T08:41:35.057Z,3.65
2018-05-14T08:44:02.429Z,4.10
2018-05-14T08:46:30.394Z,4.07
2018-05-14T08:48:57.697Z,4.00
2018-05-14T08:51:25.311Z,4.47
2018-05-14T08:53:53.079Z,3.60
2018-05-14T08:56:21.056Z,3.83
2018-05-14T08:58:48.934Z,4.40
2018-05-14T09:01:16.567Z,4.60
2018-05-14T09:03:43.943Z,3.90
2018-05-14T09:06:12.003Z,3.75
2018-05-14T09:08:40.015Z,3.35
2018-05-14T09:11:07.427Z,3.25
2018-05-14T09:13:35.183Z,4.15
2018-05-14T09:16:03.076Z,3.35
2018-05-14T09:18:31.029Z,3.65
2018-05-14T09:20:58.944Z,3.67
2018-05-14T09:23:26.442Z,2.83
2018-05-14T09:25:54.231Z,3.30
2018-05-14T09:28:22.004Z,4.22
2018-05-14T09:30:49.549Z,3.47
2018-05-14T09:33:17.618Z,4.00
2018-05-14T09:35:45.366Z,3.62
2018-05-14T09:38:12.723Z,3.70
2018-05-14T09:40:40.408Z,3.20
2018-05-14T09:43:08.322Z,3.37
2018-05-14T09:45:35.682Z,3.72
2018-05-14T09:48:03.091Z,3.28
2018-05-14T09:50:31.028Z,3.45
2018-05-14T09:52:59.328Z,3.70
2018-05-14T09:55:27.196Z,3.67
2018-05-14T09:57:54.947Z,3.28
2018-05-14T10:00:22.437Z,3.17
2018-05-14T10:02:49.884Z,3.55
2018-05-14T10:05:18.173Z,3.25
2018-05-14T10:07:45.529Z,3.40
2018-05-14T10:10:13.124Z,3.40
2018-05-14T10:12:40.625Z,3.20
2018-05-14T10:15:08.696Z,3.45
2018-05-14T10:17:36.492Z,3.58
2018-05-14T10:20:04.027Z,3.15
2018-05-14T10:22:31.938Z,3.60
2018-05-14T10:24:59.365Z,3.05
2018-05-14T10:27:26.910Z,3.00
2018-05-14T10:29:54.752Z,3.37
2018-05-14T10:32:22.143Z,3.40
2018-05-14T10:34:49.500Z,3.17
2018-05-14T10:37:17.044Z,3.25
2018-05-14T10:39:44.818Z,2.55
2018-05-14T10:42:12.990Z,3.10
2018-05-14T10:44:40.880Z,3.03
2018-05-14T10:47:08.308Z,2.92
2018-05-14T10:49:36.191Z,3.40
2018-05-14T10:52:04.894Z,2.97
2018-05-14T10:54:32.545Z,2.87
2018-05-14T10:56:59.995Z,3.35
2018-05-14T10:59:27.365Z,3.17
2018-05-14T11:01:54.738Z,3.22
2018-05-14T11:04:22.123Z,2.97
2018-05-14T11:06:49.635Z,2.78
2018-05-14T11:09:17.076Z,3.47
2018-05-14T11:11:45.123Z,2.75
2018-05-14T11:14:12.892Z,3.20
2018-05-14T11:16:40.650Z,3.40
2018-05-14T11:19:08.112Z,3.25
2018-05-14T11:21:35.904Z,3.33
2018-05-14T11:24:03.313Z,2.85
2018-05-14T11:26:30.702Z,3.10
2018-05-14T11:28:58.566Z,3.03
2018-05-14T11:31:26.747Z,3.03
2018-05-14T11:33:56.865Z,3.20
2018-05-14T11:39:09.699Z,2.90
2018-05-14T11:41:37.253Z,3.03
2018-05-14T11:44:05.124Z,3.40
2018-05-14T11:46:33.005Z,3.42
2018-05-14T11:49:00.807Z,3.08
2018-05-14T11:51:28.343Z,3.20
2018-05-14T11:53:55.705Z,3.30
2018-05-14T11:56:23.231Z,2.87
2018-05-14T11:58:51.099Z,3.03
2018-05-14T12:01:18.556Z,2.90
2018-05-14T12:03:46.396Z,2.90
2018-05-14T12:06:14.213Z,3.17
2018-05-14T12:08:41.746Z,2.37
2018-05-14T12:11:09.618Z,2.90
2018-05-14T12:13:37.558Z,2.67
2018-05-14T12:16:05.038Z,2.97
2018-05-14T12:18:32.513Z,2.72
2018-05-14T12:21:00.262Z,2.75
2018-05-14T12:23:27.636Z,3.03
2018-05-14T12:25:55.010Z,2.75
2018-05-14T12:28:22.618Z,2.78
2018-05-14T12:30:50.155Z,2.42
2018-05-14T12:33:17.530Z,2.80
2018-05-14T12:35:45.079Z,2.83
2018-05-14T12:38:12.443Z,2.55
2018-05-14T12:40:39.836Z,2.55
2018-05-14T12:43:07.273Z,2.72
2018-05-14T12:45:35.390Z,3.22
2018-05-14T12:48:02.746Z,2.80
2018-05-14T12:50:30.126Z,2.80
2018-05-14T12:52:57.688Z,2.60
2018-05-14T12:55:25.035Z,2.70
2018-05-14T12:57:52.645Z,2.92
2018-05-14T13:00:20.424Z,3.03
2018-05-14T13:02:47.773Z,2.87
2018-05-14T13:05:15.949Z,2.90
2018-05-14T13:07:43.710Z,2.60
2018-05-14T13:10:11.667Z,2.67
2018-05-14T13:12:39.532Z,2.83
2018-05-14T13:15:07.181Z,2.78
2018-05-14T13:17:34.753Z,2.55
2018-05-14T13:20:02.637Z,2.40
2018-05-14T13:22:30.383Z,2.90
2018-05-14T13:24:58.254Z,2.65
2018-05-14T13:27:26.028Z,2.60
2018-05-14T13:29:53.962Z,2.90
2018-05-14T13:32:21.447Z,2.97
2018-05-14T13:34:49.416Z,3.05
2018-05-14T13:37:17.385Z,2.55
2018-05-14T13:39:45.263Z,2.55
2018-05-14T13:42:13.031Z,2.90
2018-05-14T13:44:40.474Z,2.60
2018-05-14T13:47:08.647Z,2.60
2018-05-14T13:49:36.109Z,3.37
2018-05-14T13:52:03.994Z,3.67
2018-05-14T13:54:31.508Z,3.10
2018-05-14T13:56:59.094Z,2.72
2018-05-14T13:59:26.961Z,3.12
2018-05-14T14:01:54.733Z,3.60
2018-05-14T14:04:22.600Z,3.15
2018-05-14T14:06:50.564Z,3.03
2018-05-14T14:09:18.432Z,3.20
2018-05-14T14:11:46.198Z,3.47
2018-05-14T14:14:14.084Z,2.92
2018-05-14T14:16:41.828Z,3.00
2018-05-14T14:19:09.291Z,2.70
2018-05-14T14:21:36.750Z,3.30
2018-05-14T14:24:04.633Z,3.00
2018-05-14T14:26:32.075Z,3.15
2018-05-14T14:28:59.936Z,3.28
2018-05-14T14:31:27.902Z,3.15
2018-05-14T14:33:55.748Z,3.37
2018-05-14T14:36:23.244Z,3.33
2018-05-14T14:38:50.520Z,3.05
2018-05-14T14:41:18.342Z,3.28
2018-05-14T14:43:46.214Z,3.00
2018-05-14T14:46:14.097Z,3.60
2018-05-14T14:48:41.539Z,3.53
2018-05-14T14:51:09.440Z,3.22
2018-05-14T14:53:37.612Z,3.42
2018-05-14T14:56:05.783Z,3.40
2018-05-14T14:58:33.180Z,3.37
2018-05-14T15:01:00.543Z,2.90
2018-05-14T15:03:28.449Z,2.90
2018-05-14T15:05:56.219Z,3.03
2018-05-14T15:08:23.758Z,2.85
2018-05-14T15:10:51.561Z,2.83
2018-05-14T15:13:18.999Z,4.00
2018-05-14T15:15:46.541Z,3.42
2018-05-14T15:18:14.312Z,3.47
2018-05-14T15:20:42.173Z,3.85
2018-05-14T15:23:10.153Z,3.10
2018-05-14T15:25:38.032Z,3.17
2018-05-14T15:28:05.410Z,3.35
2018-05-14T15:30:32.867Z,3.62
2018-05-14T15:33:00.256Z,3.40
2018-05-14T15:35:27.741Z,3.92
2018-05-14T15:37:55.705Z,3.20
2018-05-14T15:40:23.050Z,3.47
2018-05-14T15:42:50.411Z,3.28
2018-05-14T15:45:17.787Z,3.35
2018-05-14T15:47:45.244Z,2.90
2018-05-14T15:50:13.204Z,3.23
2018-05-14T15:52:40.989Z,3.10
2018-05-14T15:55:08.429Z,3.42
2018-05-14T15:57:36.426Z,3.60
2018-05-14T16:00:04.042Z,3.30
2018-05-14T16:02:31.491Z,2.73
2018-05-14T16:04:59.789Z,4.13
2018-05-14T16:07:27.769Z,3.30
2018-05-14T16:09:55.633Z,3.80
2018-05-14T16:12:23.502Z,3.97
2018-05-14T16:14:51.362Z,3.70
2018-05-14T16:17:19.153Z,3.57
2018-05-14T16:19:46.526Z,3.83
2018-05-14T16:22:14.140Z,3.93
2018-05-14T16:24:41.909Z,3.73
2018-05-14T16:27:09.363Z,3.70
2018-05-14T16:29:37.242Z,3.90
2018-05-14T16:32:05.118Z,3.63
2018-05-14T16:34:32.572Z,3.30
2018-05-14T16:36:59.991Z,3.80
2018-05-14T16:39:27.415Z,3.80
2018-05-14T16:41:54.835Z,4.00
2018-05-14T16:44:22.385Z,3.97
2018-05-14T16:46:50.187Z,3.80
2018-05-14T16:49:17.727Z,3.17
2018-05-14T16:51:45.140Z,3.63
2018-05-14T16:54:12.537Z,3.40
2018-05-14T16:56:39.961Z,3.63
2018-05-14T16:59:08.318Z,3.43
2018-05-14T17:01:35.715Z,3.80
2018-05-14T17:04:03.731Z,3.57
2018-05-14T17:06:31.348Z,3.30
2018-05-14T17:08:59.094Z,3.43
2018-05-14T17:11:26.695Z,3.63
2018-05-14T17:13:54.261Z,3.30
2018-05-14T17:16:21.703Z,3.50
2018-05-14T17:18:49.554Z,3.63
2018-05-14T17:21:17.341Z,3.93
2018-05-14T17:23:44.880Z,3.77
2018-05-14T17:26:12.756Z,4.23
2018-05-14T17:28:40.720Z,4.30
2018-05-14T17:31:08.482Z,3.37
2018-05-14T17:33:36.449Z,3.80
2018-05-14T17:36:04.427Z,3.83
2018-05-14T17:38:32.175Z,3.50
2018-05-14T17:40:59.562Z,3.40
2018-05-14T17:43:27.002Z,3.57
2018-05-14T17:45:55.058Z,3.63
2018-05-14T17:48:22.445Z,3.77
2018-05-14T17:50:50.102Z,3.50
2018-05-14T17:53:17.474Z,3.70
2018-05-14T17:55:45.016Z,3.73
2018-05-14T17:58:12.423Z,3.40
2018-05-14T18:00:39.808Z,3.50
2018-05-14T18:03:07.619Z,3.53
2018-05-14T18:05:35.195Z,3.90
2018-05-14T18:08:02.677Z,3.37
2018-05-14T18:10:30.153Z,3.30
2018-05-14T18:12:57.935Z,3.13
2018-05-14T18:15:25.355Z,3.63
2018-05-14T18:17:52.796Z,3.63
2018-05-14T18:20:26.076Z,3.30
2018-05-14T18:22:53.522Z,3.50
2018-05-14T18:25:26.714Z,3.70
2018-05-14T18:27:59.881Z,3.23
2018-05-14T18:30:30.854Z,3.10
2018-05-14T18:33:02.625Z,3.70
2018-05-14T18:35:35.713Z,3.73
2018-05-14T18:38:03.126Z,3.80
2018-05-14T18:40:30.960Z,3.27
2018-05-14T18:42:58.381Z,3.40
2018-05-14T18:45:25.785Z,3.90
2018-05-14T18:47:53.865Z,3.60
2018-05-14T18:50:21.284Z,3.20
2018-05-14T18:52:48.716Z,3.53
2018-05-14T18:55:16.101Z,3.13
2018-05-14T18:57:43.543Z,3.47
2018-05-14T19:00:11.021Z,3.57
2018-05-14T19:02:38.508Z,3.53
2018-05-14T19:05:06.284Z,3.43
2018-05-14T19:07:34.238Z,3.60
2018-05-14T19:10:02.093Z,3.33
2018-05-14T19:12:29.907Z,3.40
2018-05-14T19:15:02.933Z,3.10
2018-05-14T19:17:36.127Z,3.50
2018-05-14T19:20:03.503Z,3.17
2018-05-14T19:22:36.492Z,2.80
2018-05-14T19:25:03.934Z,3.20
2018-05-14T19:27:31.754Z,3.40
2018-05-14T19:29:59.486Z,2.73
2018-05-14T19:32:30.319Z,3.30
2018-05-14T19:35:03.513Z,3.23
2018-05-14T19:37:31.284Z,2.90
2018-05-14T19:40:04.671Z,2.63
2018-05-14T19:42:32.422Z,2.80
2018-05-14T19:44:59.832Z,3.00
2018-05-14T19:47:28.256Z,3.40
2018-05-14T19:49:55.656Z,3.33
2018-05-14T19:52:23.026Z,2.73
2018-05-14T19:54:52.478Z,3.00
2018-05-14T19:57:19.873Z,2.60
2018-05-14T19:59:47.228Z,2.50
2018-05-14T20:02:14.613Z,2.67
2018-05-14T20:04:43.117Z,2.80
2018-05-14T20:07:10.527Z,2.90
2018-05-14T20:09:37.890Z,2.70
2018-05-14T20:12:05.271Z,2.80
2018-05-14T20:14:32.647Z,2.80
2018-05-14T20:17:00.087Z,2.47
2018-05-14T20:19:27.491Z,3.10
2018-05-14T20:21:55.284Z,2.67
2018-05-14T20:24:22.668Z,2.67
2018-05-14T20:26:50.218Z,3.30
2018-05-14T20:29:17.580Z,2.30
2018-05-14T20:31:45.024Z,2.60
2018-05-14T20:34:12.523Z,2.57
2018-05-14T20:36:39.877Z,2.90
2018-05-14T20:39:07.291Z,2.53
2018-05-14T20:41:34.665Z,2.50
2018-05-14T20:44:02.184Z,2.73
2018-05-14T20:46:29.545Z,2.43
2018-05-14T20:48:57.954Z,2.47
2018-05-14T20:51:25.346Z,3.10
2018-05-14T20:53:53.091Z,2.30
2018-05-14T20:56:20.548Z,2.43
2018-05-14T20:58:47.963Z,2.80
2018-05-14T21:01:15.481Z,2.50
2018-05-14T21:03:43.243Z,2.73
2018-05-14T21:06:10.640Z,2.67
2018-05-14T21:08:38.018Z,2.30
2018-05-14T21:11:05.469Z,2.60
2018-05-14T21:13:32.848Z,2.30
2018-05-14T21:16:00.348Z,2.57
2018-05-14T21:18:28.159Z,2.70
2018-05-14T21:20:55.547Z,2.53
2018-05-14T21:23:22.927Z,3.00
2018-05-14T21:25:50.300Z,2.73
2018-05-14T21:28:17.673Z,2.97
2018-05-14T21:30:45.029Z,3.27
2018-05-14T21:33:12.511Z,3.10
2018-05-14T21:35:39.886Z,3.10
2018-05-14T21:38:07.659Z,3.20
2018-05-14T21:40:35.446Z,2.73
2018-05-14T21:43:02.801Z,2.80
2018-05-14T21:45:30.190Z,2.83
2018-05-14T21:47:57.663Z,2.43
2018-05-14T21:50:25.118Z,2.47
2018-05-14T21:52:52.480Z,3.33
2018-05-14T21:55:19.847Z,3.17
2018-05-14T21:57:47.247Z,3.10
2018-05-14T22:00:14.637Z,3.23
2018-05-14T22:02:42.093Z,2.77
2018-05-14T22:05:09.453Z,2.77
2018-05-14T22:07:36.822Z,3.17
2018-05-14T22:10:04.331Z,2.70
2018-05-14T22:12:31.801Z,2.93
2018-05-14T22:14:59.166Z,3.00
2018-05-14T22:17:26.597Z,3.10
2018-05-14T22:19:53.968Z,3.73
2018-05-14T22:22:21.396Z,3.10
2018-05-14T22:24:48.785Z,3.10
2018-05-14T22:27:16.213Z,3.10
2018-05-14T22:29:43.581Z,4.10
2018-05-14T22:32:10.964Z,2.97
2018-05-14T22:34:38.373Z,3.50
2018-05-14T22:37:05.824Z,3.10
2018-05-14T22:39:33.636Z,3.30
2018-05-14T22:42:01.067Z,3.67
2018-05-14T22:44:28.496Z,3.50
2018-05-14T22:46:56.313Z,3.40
2018-05-14T22:49:23.759Z,3.20
2018-05-14T22:51:51.212Z,2.83
2018-05-14T22:54:30.757Z,3.20
2018-05-14T22:56:58.211Z,2.90
2018-05-14T22:59:25.721Z,3.40
2018-05-14T23:01:53.123Z,3.33
2018-05-14T23:04:20.524Z,2.90
2018-05-14T23:06:48.022Z,3.50
2018-05-14T23:09:15.817Z,2.93
2018-05-14T23:11:43.167Z,3.77
2018-05-14T23:14:10.695Z,2.97
2018-05-14T23:16:38.068Z,3.10
2018-05-14T23:19:05.472Z,3.47
2018-05-14T23:21:32.833Z,3.10
2018-05-14T23:24:00.183Z,3.70
2018-05-14T23:26:27.773Z,3.47
2018-05-14T23:28:55.156Z,3.97
2018-05-14T23:31:22.550Z,3.17
2018-05-14T23:33:50.385Z,3.20
2018-05-14T23:36:17.747Z,3.10
2018-05-14T23:38:45.120Z,2.83
2018-05-14T23:41:12.504Z,3.37
2018-05-14T23:43:39.869Z,2.80
2018-05-14T23:46:07.709Z,2.80
2018-05-14T23:48:35.060Z,3.00
2018-05-14T23:51:02.417Z,2.73
2018-05-14T23:53:29.838Z,2.80
2018-05-14T23:55:57.210Z,3.43
2018-05-14T23:58:24.599Z,3.10
